DEHRS EDWJ-EDWY

Flight info

Callsign DEHRS
Flight time 0h -4m
Altitude 1500
Route EDWY
Aircraft C172/L-SFG/C

Departure

Time 2026-05-06 07:55
Airport Juist Airport (EDWJ)

Arrival

Time 2026-05-06 07:50
Airport Norderney Airport (EDWY)
Time Latitude Longitude Altitude Speed Heading
2026-05-06 07:50 53.68163 7.05560 10 ft 0 kts 276°
2026-05-06 07:51 53.68152 7.05538 10 ft 10 kts 220°
2026-05-06 07:51 53.68122 7.05371 14 ft 18 kts 257°
2026-05-06 07:52 53.68095 7.05183 12 ft 9 kts 256°
2026-05-06 07:52 53.68074 7.05131 17 ft 6 kts 161°
2026-05-06 07:52 53.68059 7.05171 14 ft 3 kts 85°
2026-05-06 07:52 53.68062 7.05200 14 ft 14 kts 79°
2026-05-06 07:53 53.68078 7.05313 15 ft 0 kts 75°
2026-05-06 07:53 53.68090 7.05400 14 ft 27 kts 77°
2026-05-06 07:53 53.68164 7.05898 6 ft 58 kts 77°
2026-05-06 07:54 53.68252 7.06665 103 ft 76 kts 90°
2026-05-06 07:54 53.68264 7.07611 206 ft 88 kts 83°
2026-05-06 07:54 53.68346 7.08683 345 ft 94 kts 77°
2026-05-06 07:54 53.68438 7.09792 477 ft 98 kts 76°
2026-05-06 07:55 53.68743 7.10776 598 ft 97 kts 60°
2026-05-06 07:55 53.68952 7.11839 739 ft 94 kts 66°
2026-05-06 07:55 53.69150 7.12886 864 ft 94 kts 69°
2026-05-06 07:55 53.69338 7.13966 899 ft 99 kts 71°
2026-05-06 07:56 53.69529 7.15113 905 ft 104 kts 71°
2026-05-06 07:56 53.69709 7.16295 887 ft 100 kts 73°
2026-05-06 07:56 53.69898 7.17465 791 ft 105 kts 66°
2026-05-06 07:56 53.70136 7.18684 670 ft 109 kts 66°
2026-05-06 07:57 53.70373 7.19910 551 ft 108 kts 67°
2026-05-06 07:57 53.70580 7.21007 229 ft 92 kts 76°
2026-05-06 07:57 53.70650 7.22001 54 ft 78 kts 85°
2026-05-06 07:57 53.70679 7.22791 8 ft 57 kts 84°
2026-05-06 07:58 53.70706 7.23376 5 ft 48 kts 85°
2026-05-06 07:58 53.70739 7.23732 12 ft 7 kts 350°
2026-05-06 07:58 53.70770 7.23619 8 ft 19 kts 287°
2026-05-06 07:58 53.70805 7.23342 6 ft 22 kts 265°
2026-05-06 07:59 53.70788 7.23098 6 ft 20 kts 263°
2026-05-06 07:59 53.70777 7.22882 7 ft 16 kts 310°
2026-05-06 07:59 53.70782 7.22758 9 ft 0 kts 258°